sensor_id;sensor_type;location;lat;lon;timestamp;pressure;altitude;pressure_sealevel;temperature;humidity
58919;BME280;44704;50.122;19.932;2022-11-14T00:02:12;99563.22;;;5.14;99.19
58919;BME280;44704;50.122;19.932;2022-11-14T00:04:57;99563.94;;;5.15;99.28
58919;BME280;44704;50.122;19.932;2022-11-14T00:07:43;99565.09;;;5.14;99.41
58919;BME280;44704;50.122;19.932;2022-11-14T00:10:29;99563.89;;;5.13;99.06
58919;BME280;44704;50.122;19.932;2022-11-14T00:13:16;99559.12;;;5.12;99.09
58919;BME280;44704;50.122;19.932;2022-11-14T00:16:01;99562.67;;;5.11;99.01
58919;BME280;44704;50.122;19.932;2022-11-14T00:18:47;99561.14;;;5.11;99.25
58919;BME280;44704;50.122;19.932;2022-11-14T00:21:32;99562.04;;;5.11;99.13
58919;BME280;44704;50.122;19.932;2022-11-14T00:24:21;99559.16;;;5.09;98.98
58919;BME280;44704;50.122;19.932;2022-11-14T00:27:06;99553.57;;;5.06;98.89
58919;BME280;44704;50.122;19.932;2022-11-14T00:29:52;99552.29;;;5.04;98.89
58919;BME280;44704;50.122;19.932;2022-11-14T00:32:37;99551.56;;;5.01;98.81
58919;BME280;44704;50.122;19.932;2022-11-14T00:35:23;99549.27;;;4.97;98.67
58919;BME280;44704;50.122;19.932;2022-11-14T00:38:08;99548.31;;;4.94;98.78
58919;BME280;44704;50.122;19.932;2022-11-14T00:40:54;99551.38;;;4.90;98.72
58919;BME280;44704;50.122;19.932;2022-11-14T00:43:39;99542.80;;;4.85;98.63
58919;BME280;44704;50.122;19.932;2022-11-14T00:46:25;99539.17;;;4.82;98.80
58919;BME280;44704;50.122;19.932;2022-11-14T00:49:10;99540.92;;;4.81;99.06
58919;BME280;44704;50.122;19.932;2022-11-14T00:51:56;99539.17;;;4.81;99.06
58919;BME280;44704;50.122;19.932;2022-11-14T00:54:41;99539.89;;;4.79;98.97
58919;BME280;44704;50.122;19.932;2022-11-14T00:57:27;99543.80;;;4.76;98.92
58919;BME280;44704;50.122;19.932;2022-11-14T01:00:13;99540.15;;;4.73;98.93
58919;BME280;44704;50.122;19.932;2022-11-14T01:02:59;99544.15;;;4.72;99.07
58919;BME280;44704;50.122;19.932;2022-11-14T01:05:47;99542.01;;;4.73;99.34
58919;BME280;44704;50.122;19.932;2022-11-14T01:08:34;99538.67;;;4.72;99.27
58919;BME280;44704;50.122;19.932;2022-11-14T01:11:23;99535.23;;;4.73;99.22
58919;BME280;44704;50.122;19.932;2022-11-14T01:14:09;99527.54;;;4.72;99.18
58919;BME280;44704;50.122;19.932;2022-11-14T01:16:56;99530.59;;;4.71;98.99
58919;BME280;44704;50.122;19.932;2022-11-14T01:19:41;99533.86;;;4.71;99.14
58919;BME280;44704;50.122;19.932;2022-11-14T01:22:28;99532.81;;;4.67;98.91
58919;BME280;44704;50.122;19.932;2022-11-14T01:25:14;99536.65;;;4.67;98.95
58919;BME280;44704;50.122;19.932;2022-11-14T01:28:00;99532.58;;;4.66;98.83
58919;BME280;44704;50.122;19.932;2022-11-14T01:30:46;99530.67;;;4.64;98.79
58919;BME280;44704;50.122;19.932;2022-11-14T01:33:32;99531.56;;;4.64;99.04
58919;BME280;44704;50.122;19.932;2022-11-14T01:36:18;99522.80;;;4.65;98.98
58919;BME280;44704;50.122;19.932;2022-11-14T01:39:04;99523.27;;;4.66;99.05
58919;BME280;44704;50.122;19.932;2022-11-14T01:41:50;99520.41;;;4.66;99.15
58919;BME280;44704;50.122;19.932;2022-11-14T01:47:33;99512.19;;;4.65;98.92
58919;BME280;44704;50.122;19.932;2022-11-14T01:50:19;99513.16;;;4.66;99.31
58919;BME280;44704;50.122;19.932;2022-11-14T01:53:05;99509.51;;;4.67;99.25
58919;BME280;44704;50.122;19.932;2022-11-14T01:55:55;99510.63;;;4.66;99.30
58919;BME280;44704;50.122;19.932;2022-11-14T01:58:44;99507.60;;;4.66;99.39
58919;BME280;44704;50.122;19.932;2022-11-14T02:01:34;99511.88;;;4.65;99.41
58919;BME280;44704;50.122;19.932;2022-11-14T02:04:35;99511.08;;;4.64;99.42
58919;BME280;44704;50.122;19.932;2022-11-14T02:07:23;99509.75;;;4.62;99.42
58919;BME280;44704;50.122;19.932;2022-11-14T02:10:15;99502.73;;;4.60;99.35
58919;BME280;44704;50.122;19.932;2022-11-14T02:13:02;99500.56;;;4.58;99.15
58919;BME280;44704;50.122;19.932;2022-11-14T02:15:48;99494.39;;;4.56;99.15
58919;BME280;44704;50.122;19.932;2022-11-14T02:18:34;99496.05;;;4.54;99.30
58919;BME280;44704;50.122;19.932;2022-11-14T02:21:20;99495.96;;;4.53;99.25
58919;BME280;44704;50.122;19.932;2022-11-14T02:24:12;99498.46;;;4.52;99.48
58919;BME280;44704;50.122;19.932;2022-11-14T02:26:58;99497.79;;;4.52;99.54
58919;BME280;44704;50.122;19.932;2022-11-14T02:29:44;99496.61;;;4.51;99.48
58919;BME280;44704;50.122;19.932;2022-11-14T02:32:29;99496.70;;;4.50;99.48
58919;BME280;44704;50.122;19.932;2022-11-14T02:35:15;99488.80;;;4.50;99.48
58919;BME280;44704;50.122;19.932;2022-11-14T02:38:00;99482.96;;;4.49;99.34
58919;BME280;44704;50.122;19.932;2022-11-14T02:40:46;99480.86;;;4.49;99.54
58919;BME280;44704;50.122;19.932;2022-11-14T02:43:32;99480.96;;;4.48;99.73
58919;BME280;44704;50.122;19.932;2022-11-14T02:46:17;99481.20;;;4.47;99.86
58919;BME280;44704;50.122;19.932;2022-11-14T02:49:02;99473.94;;;4.48;99.83
58919;BME280;44704;50.122;19.932;2022-11-14T02:51:48;99467.17;;;4.47;99.79
58919;BME280;44704;50.122;19.932;2022-11-14T02:54:35;99469.93;;;4.48;99.84
58919;BME280;44704;50.122;19.932;2022-11-14T02:57:23;99476.39;;;4.48;99.93
58919;BME280;44704;50.122;19.932;2022-11-14T03:00:10;99476.64;;;4.49;100.00
58919;BME280;44704;50.122;19.932;2022-11-14T03:02:56;99475.70;;;4.51;100.00
58919;BME280;44704;50.122;19.932;2022-11-14T03:05:44;99474.66;;;4.51;100.00
58919;BME280;44704;50.122;19.932;2022-11-14T03:08:30;99473.20;;;4.50;99.99
58919;BME280;44704;50.122;19.932;2022-11-14T03:11:15;99476.48;;;4.51;100.00
58919;BME280;44704;50.122;19.932;2022-11-14T03:14:01;99475.73;;;4.52;100.00
58919;BME280;44704;50.122;19.932;2022-11-14T03:16:49;99470.84;;;4.53;100.00
58919;BME280;44704;50.122;19.932;2022-11-14T03:19:35;99466.22;;;4.54;100.00
58919;BME280;44704;50.122;19.932;2022-11-14T03:22:21;99460.41;;;4.54;100.00
58919;BME280;44704;50.122;19.932;2022-11-14T03:25:06;99453.42;;;4.56;100.00
58919;BME280;44704;50.122;19.932;2022-11-14T03:27:55;99452.23;;;4.56;100.00
58919;BME280;44704;50.122;19.932;2022-11-14T03:30:41;99453.16;;;4.55;100.00
58919;BME280;44704;50.122;19.932;2022-11-14T03:33:27;99457.91;;;4.54;100.00
58919;BME280;44704;50.122;19.932;2022-11-14T03:36:13;99459.29;;;4.55;100.00
58919;BME280;44704;50.122;19.932;2022-11-14T03:39:02;99458.80;;;4.53;100.00
58919;BME280;44704;50.122;19.932;2022-11-14T03:41:48;99455.79;;;4.51;100.00
58919;BME280;44704;50.122;19.932;2022-11-14T03:44:34;99458.36;;;4.50;100.00
58919;BME280;44704;50.122;19.932;2022-11-14T03:47:19;99463.73;;;4.49;100.00
58919;BME280;44704;50.122;19.932;2022-11-14T03:50:05;99455.61;;;4.48;100.00
58919;BME280;44704;50.122;19.932;2022-11-14T03:52:51;99454.98;;;4.47;100.00
58919;BME280;44704;50.122;19.932;2022-11-14T03:55:36;99454.20;;;4.49;100.00
58919;BME280;44704;50.122;19.932;2022-11-14T03:58:26;99457.10;;;4.50;100.00
58919;BME280;44704;50.122;19.932;2022-11-14T04:01:12;99458.58;;;4.53;100.00
58919;BME280;44704;50.122;19.932;2022-11-14T04:03:58;99456.34;;;4.57;100.00
58919;BME280;44704;50.122;19.932;2022-11-14T04:06:43;99448.87;;;4.59;100.00
58919;BME280;44704;50.122;19.932;2022-11-14T04:09:30;99442.36;;;4.60;100.00
58919;BME280;44704;50.122;19.932;2022-11-14T04:12:16;99435.42;;;4.59;100.00
58919;BME280;44704;50.122;19.932;2022-11-14T04:15:01;99430.34;;;4.58;100.00
58919;BME280;44704;50.122;19.932;2022-11-14T04:17:47;99431.35;;;4.59;100.00
58919;BME280;44704;50.122;19.932;2022-11-14T04:20:33;99431.50;;;4.60;100.00
58919;BME280;44704;50.122;19.932;2022-11-14T04:23:19;99428.89;;;4.63;100.00
58919;BME280;44704;50.122;19.932;2022-11-14T04:26:05;99430.92;;;4.63;100.00
58919;BME280;44704;50.122;19.932;2022-11-14T04:28:53;99430.70;;;4.62;100.00
58919;BME280;44704;50.122;19.932;2022-11-14T04:31:38;99429.17;;;4.60;100.00
58919;BME280;44704;50.122;19.932;2022-11-14T04:34:24;99426.17;;;4.60;100.00
58919;BME280;44704;50.122;19.932;2022-11-14T04:37:09;99421.27;;;4.60;100.00
58919;BME280;44704;50.122;19.932;2022-11-14T04:39:55;99415.33;;;4.62;100.00
58919;BME280;44704;50.122;19.932;2022-11-14T04:42:45;99414.55;;;4.62;100.00
58919;BME280;44704;50.122;19.932;2022-11-14T04:45:31;99413.42;;;4.64;100.00
58919;BME280;44704;50.122;19.932;2022-11-14T04:48:16;99414.97;;;4.64;100.00
58919;BME280;44704;50.122;19.932;2022-11-14T04:51:02;99415.73;;;4.66;100.00
58919;BME280;44704;50.122;19.932;2022-11-14T04:53:48;99421.46;;;4.66;100.00
58919;BME280;44704;50.122;19.932;2022-11-14T04:56:33;99426.70;;;4.66;100.00
58919;BME280;44704;50.122;19.932;2022-11-14T04:59:19;99427.61;;;4.66;100.00
58919;BME280;44704;50.122;19.932;2022-11-14T05:02:04;99426.74;;;4.67;100.00
58919;BME280;44704;50.122;19.932;2022-11-14T05:04:50;99418.64;;;4.65;100.00
58919;BME280;44704;50.122;19.932;2022-11-14T05:07:35;99420.80;;;4.66;100.00
58919;BME280;44704;50.122;19.932;2022-11-14T05:10:21;99416.28;;;4.64;100.00
58919;BME280;44704;50.122;19.932;2022-11-14T05:13:06;99418.71;;;4.63;100.00
58919;BME280;44704;50.122;19.932;2022-11-14T05:15:52;99410.33;;;4.63;100.00
58919;BME280;44704;50.122;19.932;2022-11-14T05:18:39;99411.44;;;4.61;100.00
58919;BME280;44704;50.122;19.932;2022-11-14T05:21:27;99413.52;;;4.62;100.00
58919;BME280;44704;50.122;19.932;2022-11-14T05:24:16;99412.89;;;4.61;100.00
58919;BME280;44704;50.122;19.932;2022-11-14T05:27:04;99407.76;;;4.60;100.00
58919;BME280;44704;50.122;19.932;2022-11-14T05:29:49;99394.84;;;4.60;100.00
58919;BME280;44704;50.122;19.932;2022-11-14T05:32:35;99393.75;;;4.59;100.00
58919;BME280;44704;50.122;19.932;2022-11-14T05:35:20;99396.59;;;4.57;100.00
58919;BME280;44704;50.122;19.932;2022-11-14T05:38:06;99405.59;;;4.57;100.00
58919;BME280;44704;50.122;19.932;2022-11-14T05:40:51;99407.42;;;4.55;100.00
58919;BME280;44704;50.122;19.932;2022-11-14T05:43:37;99410.05;;;4.53;100.00
58919;BME280;44704;50.122;19.932;2022-11-14T05:46:23;99411.75;;;4.51;100.00
58919;BME280;44704;50.122;19.932;2022-11-14T05:49:09;99410.80;;;4.51;100.00
58919;BME280;44704;50.122;19.932;2022-11-14T05:51:54;99402.37;;;4.51;100.00
58919;BME280;44704;50.122;19.932;2022-11-14T05:54:40;99401.88;;;4.50;100.00
58919;BME280;44704;50.122;19.932;2022-11-14T05:57:25;99396.65;;;4.50;100.00
58919;BME280;44704;50.122;19.932;2022-11-14T06:00:11;99398.89;;;4.51;100.00
58919;BME280;44704;50.122;19.932;2022-11-14T06:02:57;99397.10;;;4.53;100.00
58919;BME280;44704;50.122;19.932;2022-11-14T06:05:43;99399.70;;;4.54;100.00
58919;BME280;44704;50.122;19.932;2022-11-14T06:08:30;99404.09;;;4.54;100.00
58919;BME280;44704;50.122;19.932;2022-11-14T06:11:20;99409.73;;;4.54;100.00
58919;BME280;44704;50.122;19.932;2022-11-14T06:14:05;99413.67;;;4.54;100.00
58919;BME280;44704;50.122;19.932;2022-11-14T06:16:51;99416.58;;;4.54;100.00
58919;BME280;44704;50.122;19.932;2022-11-14T06:19:37;99417.34;;;4.52;100.00
58919;BME280;44704;50.122;19.932;2022-11-14T06:22:23;99410.41;;;4.50;100.00
58919;BME280;44704;50.122;19.932;2022-11-14T06:25:08;99418.69;;;4.48;100.00
58919;BME280;44704;50.122;19.932;2022-11-14T06:27:54;99420.65;;;4.47;100.00
58919;BME280;44704;50.122;19.932;2022-11-14T06:30:40;99421.01;;;4.45;100.00
58919;BME280;44704;50.122;19.932;2022-11-14T06:33:28;99429.47;;;4.48;100.00
58919;BME280;44704;50.122;19.932;2022-11-14T06:36:14;99431.47;;;4.51;100.00
58919;BME280;44704;50.122;19.932;2022-11-14T06:39:00;99427.05;;;4.50;100.00
58919;BME280;44704;50.122;19.932;2022-11-14T06:41:45;99419.57;;;4.51;100.00
58919;BME280;44704;50.122;19.932;2022-11-14T06:44:31;99422.02;;;4.53;100.00
58919;BME280;44704;50.122;19.932;2022-11-14T06:47:16;99421.75;;;4.55;100.00
58919;BME280;44704;50.122;19.932;2022-11-14T06:50:02;99420.28;;;4.58;100.00
58919;BME280;44704;50.122;19.932;2022-11-14T06:52:48;99413.87;;;4.59;100.00
58919;BME280;44704;50.122;19.932;2022-11-14T06:55:34;99411.22;;;4.60;100.00
58919;BME280;44704;50.122;19.932;2022-11-14T06:58:19;99413.92;;;4.60;100.00
58919;BME280;44704;50.122;19.932;2022-11-14T07:01:13;99410.78;;;4.62;100.00
58919;BME280;44704;50.122;19.932;2022-11-14T07:03:58;99407.34;;;4.71;100.00
58919;BME280;44704;50.122;19.932;2022-11-14T07:06:47;99407.02;;;4.74;100.00
58919;BME280;44704;50.122;19.932;2022-11-14T07:09:32;99402.03;;;4.73;100.00
58919;BME280;44704;50.122;19.932;2022-11-14T07:12:18;99399.79;;;4.76;100.00
58919;BME280;44704;50.122;19.932;2022-11-14T07:15:04;99393.08;;;4.79;100.00
58919;BME280;44704;50.122;19.932;2022-11-14T07:17:50;99392.44;;;4.87;100.00
58919;BME280;44704;50.122;19.932;2022-11-14T07:20:36;99393.77;;;4.96;100.00
58919;BME280;44704;50.122;19.932;2022-11-14T07:23:22;99389.42;;;4.96;100.00
58919;BME280;44704;50.122;19.932;2022-11-14T07:26:10;99386.08;;;4.95;99.94
58919;BME280;44704;50.122;19.932;2022-11-14T07:28:56;99391.98;;;4.96;99.97
58919;BME280;44704;50.122;19.932;2022-11-14T07:31:45;99395.52;;;4.94;99.89
58919;BME280;44704;50.122;19.932;2022-11-14T07:34:33;99401.45;;;4.93;99.73
58919;BME280;44704;50.122;19.932;2022-11-14T07:37:40;99400.08;;;4.92;99.93
58919;BME280;44704;50.122;19.932;2022-11-14T07:40:31;99397.06;;;4.94;100.00
58919;BME280;44704;50.122;19.932;2022-11-14T07:43:20;99398.84;;;4.96;100.00
58919;BME280;44704;50.122;19.932;2022-11-14T07:46:11;99397.90;;;4.97;100.00
58919;BME280;44704;50.122;19.932;2022-11-14T07:48:57;99401.68;;;5.00;100.00
58919;BME280;44704;50.122;19.932;2022-11-14T07:51:43;99400.95;;;5.02;100.00
58919;BME280;44704;50.122;19.932;2022-11-14T07:54:39;99404.80;;;5.03;99.70
58919;BME280;44704;50.122;19.932;2022-11-14T07:57:27;99401.66;;;5.02;99.40
58919;BME280;44704;50.122;19.932;2022-11-14T08:00:33;99404.16;;;4.99;99.20
58919;BME280;44704;50.122;19.932;2022-11-14T08:07:23;99392.32;;;4.93;99.12
58919;BME280;44704;50.122;19.932;2022-11-14T08:10:25;99397.95;;;4.93;98.81
58919;BME280;44704;50.122;19.932;2022-11-14T08:13:11;99395.02;;;4.91;99.22
58919;BME280;44704;50.122;19.932;2022-11-14T08:15:57;99388.90;;;4.94;99.57
58919;BME280;44704;50.122;19.932;2022-11-14T08:18:44;99384.45;;;4.97;99.54
58919;BME280;44704;50.122;19.932;2022-11-14T08:21:29;99378.30;;;5.00;99.42
58919;BME280;44704;50.122;19.932;2022-11-14T08:24:15;99375.64;;;5.03;99.42
58919;BME280;44704;50.122;19.932;2022-11-14T08:27:00;99370.30;;;5.07;99.50
58919;BME280;44704;50.122;19.932;2022-11-14T08:29:46;99361.02;;;5.09;99.33
58919;BME280;44704;50.122;19.932;2022-11-14T08:32:32;99359.94;;;5.12;99.56
58919;BME280;44704;50.122;19.932;2022-11-14T08:35:18;99358.88;;;5.17;99.54
58919;BME280;44704;50.122;19.932;2022-11-14T08:38:03;99354.66;;;5.19;99.52
58919;BME280;44704;50.122;19.932;2022-11-14T08:40:49;99356.38;;;5.19;99.29
58919;BME280;44704;50.122;19.932;2022-11-14T08:43:34;99351.31;;;5.20;98.98
58919;BME280;44704;50.122;19.932;2022-11-14T08:46:20;99345.46;;;5.20;98.81
58919;BME280;44704;50.122;19.932;2022-11-14T08:49:06;99344.76;;;5.23;99.14
58919;BME280;44704;50.122;19.932;2022-11-14T08:51:52;99346.68;;;5.28;99.06
58919;BME280;44704;50.122;19.932;2022-11-14T08:54:38;99350.45;;;5.31;99.15
58919;BME280;44704;50.122;19.932;2022-11-14T08:57:23;99343.46;;;5.33;98.78
58919;BME280;44704;50.122;19.932;2022-11-14T09:00:09;99345.29;;;5.36;98.81
58919;BME280;44704;50.122;19.932;2022-11-14T09:02:55;99344.71;;;5.38;99.10
58919;BME280;44704;50.122;19.932;2022-11-14T09:05:41;99343.77;;;5.41;98.87
58919;BME280;44704;50.122;19.932;2022-11-14T09:08:27;99345.38;;;5.43;98.67
58919;BME280;44704;50.122;19.932;2022-11-14T09:11:13;99346.58;;;5.43;98.58
58919;BME280;44704;50.122;19.932;2022-11-14T09:13:58;99342.64;;;5.42;97.87
58919;BME280;44704;50.122;19.932;2022-11-14T09:16:46;99346.45;;;5.40;98.13
58919;BME280;44704;50.122;19.932;2022-11-14T09:19:33;99352.52;;;5.41;98.10
58919;BME280;44704;50.122;19.932;2022-11-14T09:22:20;99359.34;;;5.40;97.72
58919;BME280;44704;50.122;19.932;2022-11-14T09:25:07;99350.36;;;5.40;97.81
58919;BME280;44704;50.122;19.932;2022-11-14T09:27:54;99350.73;;;5.43;98.19
58919;BME280;44704;50.122;19.932;2022-11-14T09:30:40;99340.86;;;5.44;97.97
58919;BME280;44704;50.122;19.932;2022-11-14T09:33:26;99342.36;;;5.49;98.26
58919;BME280;44704;50.122;19.932;2022-11-14T09:36:13;99338.58;;;5.54;98.05
58919;BME280;44704;50.122;19.932;2022-11-14T09:39:02;99336.26;;;5.57;98.23
58919;BME280;44704;50.122;19.932;2022-11-14T09:42:01;99331.33;;;5.59;97.91
58919;BME280;44704;50.122;19.932;2022-11-14T09:44:56;99324.93;;;5.63;98.12
58919;BME280;44704;50.122;19.932;2022-11-14T09:47:47;99322.48;;;5.68;98.02
58919;BME280;44704;50.122;19.932;2022-11-14T09:50:43;99326.38;;;5.70;97.65
58919;BME280;44704;50.122;19.932;2022-11-14T09:53:34;99326.48;;;5.69;97.54
58919;BME280;44704;50.122;19.932;2022-11-14T09:56:24;99334.36;;;5.70;97.74
58919;BME280;44704;50.122;19.932;2022-11-14T09:59:13;99331.45;;;5.69;97.20
58919;BME280;44704;50.122;19.932;2022-11-14T10:02:00;99328.45;;;5.70;97.27
58919;BME280;44704;50.122;19.932;2022-11-14T10:07:52;99320.63;;;5.74;97.07
58919;BME280;44704;50.122;19.932;2022-11-14T10:11:05;99314.27;;;5.73;96.86
58919;BME280;44704;50.122;19.932;2022-11-14T10:14:14;99309.16;;;5.70;96.79
58919;BME280;44704;50.122;19.932;2022-11-14T10:20:53;99315.45;;;5.70;97.00
58919;BME280;44704;50.122;19.932;2022-11-14T10:27:02;99304.42;;;5.77;96.94
58919;BME280;44704;50.122;19.932;2022-11-14T10:30:14;99297.40;;;5.78;96.90
58919;BME280;44704;50.122;19.932;2022-11-14T10:33:19;99289.50;;;5.78;96.72
58919;BME280;44704;50.122;19.932;2022-11-14T10:36:53;99289.28;;;5.77;96.71
58919;BME280;44704;50.122;19.932;2022-11-14T10:39:56;99283.09;;;5.77;96.85
58919;BME280;44704;50.122;19.932;2022-11-14T10:42:54;99284.08;;;5.77;96.52
58919;BME280;44704;50.122;19.932;2022-11-14T10:45:47;99277.63;;;5.76;96.54
58919;BME280;44704;50.122;19.932;2022-11-14T10:48:39;99276.86;;;5.78;96.65
58919;BME280;44704;50.122;19.932;2022-11-14T10:51:54;99273.65;;;5.78;96.05
58919;BME280;44704;50.122;19.932;2022-11-14T10:54:45;99275.77;;;5.77;96.23
58919;BME280;44704;50.122;19.932;2022-11-14T10:57:35;99271.21;;;5.79;96.33
58919;BME280;44704;50.122;19.932;2022-11-14T11:00:21;99275.38;;;5.84;96.91
58919;BME280;44704;50.122;19.932;2022-11-14T11:03:07;99272.42;;;5.89;97.13
58919;BME280;44704;50.122;19.932;2022-11-14T11:05:54;99262.42;;;5.93;96.91
58919;BME280;44704;50.122;19.932;2022-11-14T11:08:42;99261.05;;;5.92;96.41
58919;BME280;44704;50.122;19.932;2022-11-14T11:12:08;99255.94;;;5.91;96.05
58919;BME280;44704;50.122;19.932;2022-11-14T11:15:19;99255.99;;;5.89;95.69
58919;BME280;44704;50.122;19.932;2022-11-14T11:21:08;99248.17;;;5.89;96.30
58919;BME280;44704;50.122;19.932;2022-11-14T11:23:56;99245.75;;;5.87;96.19
58919;BME280;44704;50.122;19.932;2022-11-14T11:26:42;99245.49;;;5.87;95.79
58919;BME280;44704;50.122;19.932;2022-11-14T11:29:28;99247.54;;;5.88;96.31
58919;BME280;44704;50.122;19.932;2022-11-14T11:32:24;99244.31;;;5.90;96.47
58919;BME280;44704;50.122;19.932;2022-11-14T11:35:15;99240.37;;;5.90;96.05
58919;BME280;44704;50.122;19.932;2022-11-14T11:38:02;99239.75;;;5.91;96.22
58919;BME280;44704;50.122;19.932;2022-11-14T11:40:52;99237.76;;;5.93;96.58
58919;BME280;44704;50.122;19.932;2022-11-14T11:49:47;99229.52;;;5.92;96.87
58919;BME280;44704;50.122;19.932;2022-11-14T11:52:42;99227.20;;;5.95;96.81
58919;BME280;44704;50.122;19.932;2022-11-14T11:55:38;99225.73;;;5.97;96.49
58919;BME280;44704;50.122;19.932;2022-11-14T11:58:34;99227.33;;;5.95;96.35
58919;BME280;44704;50.122;19.932;2022-11-14T12:01:21;99225.43;;;5.95;96.87
58919;BME280;44704;50.122;19.932;2022-11-14T12:04:07;99225.39;;;5.96;96.88
58919;BME280;44704;50.122;19.932;2022-11-14T12:07:01;99223.58;;;5.99;97.35
58919;BME280;44704;50.122;19.932;2022-11-14T12:09:49;99220.86;;;6.01;96.87
58919;BME280;44704;50.122;19.932;2022-11-14T12:24:39;99206.74;;;6.01;97.18
58919;BME280;44704;50.122;19.932;2022-11-14T12:30:49;99197.91;;;6.04;97.73
58919;BME280;44704;50.122;19.932;2022-11-14T12:33:47;99196.48;;;6.07;97.73
58919;BME280;44704;50.122;19.932;2022-11-14T12:36:43;99184.16;;;6.07;97.55
58919;BME280;44704;50.122;19.932;2022-11-14T12:39:31;99185.59;;;6.09;97.99
58919;BME280;44704;50.122;19.932;2022-11-14T12:42:20;99186.58;;;6.13;97.93
58919;BME280;44704;50.122;19.932;2022-11-14T12:54:47;99173.25;;;6.16;97.73
58919;BME280;44704;50.122;19.932;2022-11-14T12:57:43;99173.27;;;6.15;97.48
58919;BME280;44704;50.122;19.932;2022-11-14T13:00:37;99168.05;;;6.11;97.19
58919;BME280;44704;50.122;19.932;2022-11-14T13:06:23;99171.80;;;6.07;97.64
58919;BME280;44704;50.122;19.932;2022-11-14T13:09:22;99165.31;;;6.06;97.64
58919;BME280;44704;50.122;19.932;2022-11-14T13:12:33;99166.68;;;6.06;97.69
58919;BME280;44704;50.122;19.932;2022-11-14T13:15:54;99160.42;;;6.03;97.71
58919;BME280;44704;50.122;19.932;2022-11-14T13:19:11;99161.10;;;5.99;97.52
58919;BME280;44704;50.122;19.932;2022-11-14T13:22:32;99158.31;;;5.94;97.57
58919;BME280;44704;50.122;19.932;2022-11-14T13:25:22;99153.80;;;5.89;97.53
58919;BME280;44704;50.122;19.932;2022-11-14T13:31:41;99156.66;;;5.84;97.76
58919;BME280;44704;50.122;19.932;2022-11-14T13:40:48;99145.68;;;5.85;98.56
58919;BME280;44704;50.122;19.932;2022-11-14T13:49:55;99131.42;;;5.85;98.08
58919;BME280;44704;50.122;19.932;2022-11-14T13:52:47;99132.45;;;5.84;98.38
58919;BME280;44704;50.122;19.932;2022-11-14T13:55:52;99132.02;;;5.83;98.49
58919;BME280;44704;50.122;19.932;2022-11-14T14:11:01;99113.95;;;5.80;98.75
58919;BME280;44704;50.122;19.932;2022-11-14T14:14:11;99113.90;;;5.79;98.59
58919;BME280;44704;50.122;19.932;2022-11-14T14:17:12;99109.17;;;5.78;98.89
58919;BME280;44704;50.122;19.932;2022-11-14T14:24:12;99099.97;;;5.77;98.74
58919;BME280;44704;50.122;19.932;2022-11-14T14:30:11;99100.69;;;5.78;99.53
58919;BME280;44704;50.122;19.932;2022-11-14T14:35:52;99094.11;;;5.78;99.30
58919;BME280;44704;50.122;19.932;2022-11-14T14:38:38;99094.48;;;5.77;99.28
58919;BME280;44704;50.122;19.932;2022-11-14T14:41:24;99084.04;;;5.91;100.00
58919;BME280;44704;50.122;19.932;2022-11-14T14:44:20;99077.96;;;5.98;99.78
58919;BME280;44704;50.122;19.932;2022-11-14T14:50:23;99077.19;;;5.96;98.69
58919;BME280;44704;50.122;19.932;2022-11-14T14:53:22;99075.29;;;5.87;97.99
58919;BME280;44704;50.122;19.932;2022-11-14T14:56:21;99080.58;;;5.80;97.93
58919;BME280;44704;50.122;19.932;2022-11-14T14:59:19;99079.63;;;5.75;98.44
58919;BME280;44704;50.122;19.932;2022-11-14T15:02:13;99077.17;;;5.68;98.34
58919;BME280;44704;50.122;19.932;2022-11-14T15:05:00;99078.14;;;5.63;98.50
58919;BME280;44704;50.122;19.932;2022-11-14T15:07:48;99074.12;;;5.59;98.80
58919;BME280;44704;50.122;19.932;2022-11-14T15:10:34;99073.13;;;5.55;98.86
58919;BME280;44704;50.122;19.932;2022-11-14T15:13:21;99076.62;;;5.55;99.02
58919;BME280;44704;50.122;19.932;2022-11-14T15:16:08;99074.27;;;5.52;99.04
58919;BME280;44704;50.122;19.932;2022-11-14T15:18:57;99072.77;;;5.50;99.27
58919;BME280;44704;50.122;19.932;2022-11-14T15:21:43;99070.10;;;5.48;99.39
58919;BME280;44704;50.122;19.932;2022-11-14T15:24:29;99068.21;;;5.46;99.11
58919;BME280;44704;50.122;19.932;2022-11-14T15:27:17;99066.40;;;5.43;99.20
58919;BME280;44704;50.122;19.932;2022-11-14T15:30:06;99065.63;;;5.41;99.21
58919;BME280;44704;50.122;19.932;2022-11-14T15:33:23;99063.20;;;5.37;99.34
58919;BME280;44704;50.122;19.932;2022-11-14T15:36:15;99066.83;;;5.34;99.53
58919;BME280;44704;50.122;19.932;2022-11-14T15:39:21;99068.39;;;5.30;99.48
58919;BME280;44704;50.122;19.932;2022-11-14T15:42:19;99071.16;;;5.28;99.74
58919;BME280;44704;50.122;19.932;2022-11-14T15:48:13;99068.85;;;5.26;99.79
58919;BME280;44704;50.122;19.932;2022-11-14T15:51:00;99068.09;;;5.24;99.84
58919;BME280;44704;50.122;19.932;2022-11-14T15:53:47;99072.16;;;5.25;100.00
58919;BME280;44704;50.122;19.932;2022-11-14T15:56:34;99069.30;;;5.25;99.94
58919;BME280;44704;50.122;19.932;2022-11-14T15:59:19;99070.41;;;5.24;99.99
58919;BME280;44704;50.122;19.932;2022-11-14T16:02:27;99067.32;;;5.23;100.00
58919;BME280;44704;50.122;19.932;2022-11-14T16:05:15;99065.29;;;5.24;100.00
58919;BME280;44704;50.122;19.932;2022-11-14T16:08:01;99065.67;;;5.25;100.00
58919;BME280;44704;50.122;19.932;2022-11-14T16:10:46;99063.08;;;5.25;100.00
58919;BME280;44704;50.122;19.932;2022-11-14T16:13:32;99065.86;;;5.26;99.97
58919;BME280;44704;50.122;19.932;2022-11-14T16:16:17;99065.11;;;5.25;99.98
58919;BME280;44704;50.122;19.932;2022-11-14T16:19:04;99067.25;;;5.24;100.00
58919;BME280;44704;50.122;19.932;2022-11-14T16:21:50;99062.95;;;5.22;100.00
58919;BME280;44704;50.122;19.932;2022-11-14T16:24:36;99057.64;;;5.21;100.00
58919;BME280;44704;50.122;19.932;2022-11-14T16:27:22;99057.62;;;5.20;100.00
58919;BME280;44704;50.122;19.932;2022-11-14T16:30:11;99055.54;;;5.20;100.00
58919;BME280;44704;50.122;19.932;2022-11-14T16:32:57;99055.39;;;5.20;100.00